sensor_id;sensor_type;location;lat;lon;timestamp;P1;durP1;ratioP1;P2;durP2;ratioP2
17524;SDS011;40431;52.198;9.902;2023-04-01T00:00:32;3.50;;;1.90;;
17524;SDS011;40431;52.198;9.902;2023-04-01T00:02:58;1.90;;;1.60;;
17524;SDS011;40431;52.198;9.902;2023-04-01T00:05:25;3.00;;;2.23;;
17524;SDS011;40431;52.198;9.902;2023-04-01T00:07:51;1.97;;;1.67;;
17524;SDS011;40431;52.198;9.902;2023-04-01T00:10:20;2.20;;;2.00;;
17524;SDS011;40431;52.198;9.902;2023-04-01T00:12:47;2.23;;;1.50;;
17524;SDS011;40431;52.198;9.902;2023-04-01T00:15:13;1.73;;;1.43;;
17524;SDS011;40431;52.198;9.902;2023-04-01T00:17:40;3.53;;;1.97;;
17524;SDS011;40431;52.198;9.902;2023-04-01T00:20:07;2.30;;;2.00;;
17524;SDS011;40431;52.198;9.902;2023-04-01T00:22:34;2.43;;;1.50;;
17524;SDS011;40431;52.198;9.902;2023-04-01T00:25:01;2.27;;;1.30;;
17524;SDS011;40431;52.198;9.902;2023-04-01T00:27:30;2.40;;;1.50;;
17524;SDS011;40431;52.198;9.902;2023-04-01T00:29:57;2.20;;;2.00;;
17524;SDS011;40431;52.198;9.902;2023-04-01T00:32:23;2.17;;;1.47;;
17524;SDS011;40431;52.198;9.902;2023-04-01T00:34:50;3.67;;;1.87;;
17524;SDS011;40431;52.198;9.902;2023-04-01T00:37:17;2.27;;;1.57;;
17524;SDS011;40431;52.198;9.902;2023-04-01T00:39:44;2.50;;;1.70;;
17524;SDS011;40431;52.198;9.902;2023-04-01T00:42:11;2.47;;;1.60;;
17524;SDS011;40431;52.198;9.902;2023-04-01T00:44:40;1.30;;;1.20;;
17524;SDS011;40431;52.198;9.902;2023-04-01T00:47:07;2.73;;;1.50;;
17524;SDS011;40431;52.198;9.902;2023-04-01T00:49:35;1.87;;;1.30;;
17524;SDS011;40431;52.198;9.902;2023-04-01T00:52:06;2.70;;;1.60;;
17524;SDS011;40431;52.198;9.902;2023-04-01T00:54:36;2.97;;;1.47;;
17524;SDS011;40431;52.198;9.902;2023-04-01T00:57:05;1.50;;;1.40;;
17524;SDS011;40431;52.198;9.902;2023-04-01T00:59:35;3.97;;;1.60;;
17524;SDS011;40431;52.198;9.902;2023-04-01T01:02:07;2.93;;;1.50;;
17524;SDS011;40431;52.198;9.902;2023-04-01T01:04:36;2.63;;;1.53;;
17524;SDS011;40431;52.198;9.902;2023-04-01T01:07:07;1.37;;;1.27;;
17524;SDS011;40431;52.198;9.902;2023-04-01T01:09:41;1.60;;;1.43;;
17524;SDS011;40431;52.198;9.902;2023-04-01T01:12:14;1.53;;;1.40;;
17524;SDS011;40431;52.198;9.902;2023-04-01T01:14:48;1.67;;;1.57;;
17524;SDS011;40431;52.198;9.902;2023-04-01T01:17:22;1.40;;;1.30;;
17524;SDS011;40431;52.198;9.902;2023-04-01T01:23:09;2.27;;;1.27;;
17524;SDS011;40431;52.198;9.902;2023-04-01T01:25:48;2.70;;;1.50;;
17524;SDS011;40431;52.198;9.902;2023-04-01T01:28:28;1.53;;;1.40;;
17524;SDS011;40431;52.198;9.902;2023-04-01T01:31:09;1.70;;;1.60;;
17524;SDS011;40431;52.198;9.902;2023-04-01T01:33:45;1.97;;;1.30;;
17524;SDS011;40431;52.198;9.902;2023-04-01T01:36:20;2.17;;;1.20;;
17524;SDS011;40431;52.198;9.902;2023-04-01T01:38:47;3.07;;;1.60;;
17524;SDS011;40431;52.198;9.902;2023-04-01T01:41:17;2.67;;;1.33;;
17524;SDS011;40431;52.198;9.902;2023-04-01T01:43:44;1.50;;;1.30;;
17524;SDS011;40431;52.198;9.902;2023-04-01T01:46:16;3.40;;;1.20;;
17524;SDS011;40431;52.198;9.902;2023-04-01T01:48:46;1.53;;;1.20;;
17524;SDS011;40431;52.198;9.902;2023-04-01T01:51:15;1.40;;;1.30;;
17524;SDS011;40431;52.198;9.902;2023-04-01T01:53:44;1.60;;;1.50;;
17524;SDS011;40431;52.198;9.902;2023-04-01T01:56:10;1.30;;;1.20;;
17524;SDS011;40431;52.198;9.902;2023-04-01T01:58:39;1.90;;;1.30;;
17524;SDS011;40431;52.198;9.902;2023-04-01T02:01:11;1.40;;;1.30;;
17524;SDS011;40431;52.198;9.902;2023-04-01T02:03:40;2.43;;;1.33;;
17524;SDS011;40431;52.198;9.902;2023-04-01T02:06:10;3.57;;;1.70;;
17524;SDS011;40431;52.198;9.902;2023-04-01T02:08:41;3.00;;;1.37;;
17524;SDS011;40431;52.198;9.902;2023-04-01T02:11:12;1.50;;;1.40;;
17524;SDS011;40431;52.198;9.902;2023-04-01T02:13:42;1.70;;;1.60;;
17524;SDS011;40431;52.198;9.902;2023-04-01T02:16:14;1.90;;;1.40;;
17524;SDS011;40431;52.198;9.902;2023-04-01T02:18:45;1.43;;;1.33;;
17524;SDS011;40431;52.198;9.902;2023-04-01T02:21:16;1.93;;;1.27;;
17524;SDS011;40431;52.198;9.902;2023-04-01T02:23:45;2.20;;;1.30;;
17524;SDS011;40431;52.198;9.902;2023-04-01T02:26:13;1.83;;;1.30;;
17524;SDS011;40431;52.198;9.902;2023-04-01T02:28:41;1.40;;;1.30;;
17524;SDS011;40431;52.198;9.902;2023-04-01T02:31:10;1.97;;;1.30;;
17524;SDS011;40431;52.198;9.902;2023-04-01T02:33:38;1.50;;;1.40;;
17524;SDS011;40431;52.198;9.902;2023-04-01T02:36:06;1.53;;;1.43;;
17524;SDS011;40431;52.198;9.902;2023-04-01T02:38:36;1.93;;;1.40;;
17524;SDS011;40431;52.198;9.902;2023-04-01T02:41:04;2.27;;;1.83;;
17524;SDS011;40431;52.198;9.902;2023-04-01T02:43:31;2.47;;;1.53;;
17524;SDS011;40431;52.198;9.902;2023-04-01T02:45:58;1.70;;;1.60;;
17524;SDS011;40431;52.198;9.902;2023-04-01T02:48:25;1.43;;;1.37;;
17524;SDS011;40431;52.198;9.902;2023-04-01T02:50:51;1.87;;;1.20;;
17524;SDS011;40431;52.198;9.902;2023-04-01T02:53:18;1.67;;;1.30;;
17524;SDS011;40431;52.198;9.902;2023-04-01T02:55:44;1.40;;;1.30;;
17524;SDS011;40431;52.198;9.902;2023-04-01T02:58:12;2.07;;;1.77;;
17524;SDS011;40431;52.198;9.902;2023-04-01T03:00:38;5.33;;;1.60;;
17524;SDS011;40431;52.198;9.902;2023-04-01T03:03:04;2.07;;;1.17;;
17524;SDS011;40431;52.198;9.902;2023-04-01T03:05:31;1.30;;;1.20;;
17524;SDS011;40431;52.198;9.902;2023-04-01T03:07:57;1.60;;;1.50;;
17524;SDS011;40431;52.198;9.902;2023-04-01T03:10:23;2.00;;;1.70;;
17524;SDS011;40431;52.198;9.902;2023-04-01T03:12:53;1.40;;;1.30;;
17524;SDS011;40431;52.198;9.902;2023-04-01T03:15:21;3.00;;;1.40;;
17524;SDS011;40431;52.198;9.902;2023-04-01T03:17:47;2.07;;;1.37;;
17524;SDS011;40431;52.198;9.902;2023-04-01T03:20:13;1.57;;;1.20;;
17524;SDS011;40431;52.198;9.902;2023-04-01T03:26:02;1.63;;;1.20;;
17524;SDS011;40431;52.198;9.902;2023-04-01T03:28:28;1.90;;;1.30;;
17524;SDS011;40431;52.198;9.902;2023-04-01T03:30:56;1.47;;;1.33;;
17524;SDS011;40431;52.198;9.902;2023-04-01T03:33:22;1.20;;;1.00;;
17524;SDS011;40431;52.198;9.902;2023-04-01T03:35:48;1.83;;;1.23;;
17524;SDS011;40431;52.198;9.902;2023-04-01T03:38:17;1.97;;;1.40;;
17524;SDS011;40431;52.198;9.902;2023-04-01T03:40:46;1.37;;;1.27;;
17524;SDS011;40431;52.198;9.902;2023-04-01T03:43:12;1.73;;;1.37;;
17524;SDS011;40431;52.198;9.902;2023-04-01T03:45:43;1.50;;;1.40;;
17524;SDS011;40431;52.198;9.902;2023-04-01T03:48:11;1.60;;;1.50;;
17524;SDS011;40431;52.198;9.902;2023-04-01T03:50:37;2.10;;;1.70;;
17524;SDS011;40431;52.198;9.902;2023-04-01T03:53:04;1.40;;;1.30;;
17524;SDS011;40431;52.198;9.902;2023-04-01T03:55:30;1.30;;;1.20;;
17524;SDS011;40431;52.198;9.902;2023-04-01T03:57:57;1.93;;;1.50;;
17524;SDS011;40431;52.198;9.902;2023-04-01T04:00:23;1.50;;;1.40;;
17524;SDS011;40431;52.198;9.902;2023-04-01T04:02:49;2.10;;;1.10;;
17524;SDS011;40431;52.198;9.902;2023-04-01T04:05:17;1.83;;;1.37;;
17524;SDS011;40431;52.198;9.902;2023-04-01T04:07:43;1.77;;;1.40;;
17524;SDS011;40431;52.198;9.902;2023-04-01T04:10:10;1.33;;;1.23;;
17524;SDS011;40431;52.198;9.902;2023-04-01T04:12:36;1.50;;;1.40;;
17524;SDS011;40431;52.198;9.902;2023-04-01T04:15:03;1.57;;;1.20;;
17524;SDS011;40431;52.198;9.902;2023-04-01T04:17:29;2.17;;;1.40;;
17524;SDS011;40431;52.198;9.902;2023-04-01T04:19:56;1.43;;;1.40;;
17524;SDS011;40431;52.198;9.902;2023-04-01T04:22:24;2.77;;;1.20;;
17524;SDS011;40431;52.198;9.902;2023-04-01T04:24:50;1.37;;;1.27;;
17524;SDS011;40431;52.198;9.902;2023-04-01T04:27:16;3.70;;;1.30;;
17524;SDS011;40431;52.198;9.902;2023-04-01T04:29:43;2.07;;;1.10;;
17524;SDS011;40431;52.198;9.902;2023-04-01T04:32:09;1.63;;;1.20;;
17524;SDS011;40431;52.198;9.902;2023-04-01T04:34:36;1.67;;;1.57;;
17524;SDS011;40431;52.198;9.902;2023-04-01T04:37:02;2.30;;;1.53;;
17524;SDS011;40431;52.198;9.902;2023-04-01T04:39:30;1.67;;;1.50;;
17524;SDS011;40431;52.198;9.902;2023-04-01T04:41:56;1.63;;;1.30;;
17524;SDS011;40431;52.198;9.902;2023-04-01T04:44:23;2.00;;;1.40;;
17524;SDS011;40431;52.198;9.902;2023-04-01T04:46:49;1.77;;;1.37;;
17524;SDS011;40431;52.198;9.902;2023-04-01T04:49:16;1.60;;;1.50;;
17524;SDS011;40431;52.198;9.902;2023-04-01T04:51:42;2.47;;;1.50;;
17524;SDS011;40431;52.198;9.902;2023-04-01T04:54:09;1.67;;;1.57;;
17524;SDS011;40431;52.198;9.902;2023-04-01T04:56:36;2.00;;;1.63;;
17524;SDS011;40431;52.198;9.902;2023-04-01T04:59:03;2.67;;;1.63;;
17524;SDS011;40431;52.198;9.902;2023-04-01T05:01:29;1.90;;;1.70;;
17524;SDS011;40431;52.198;9.902;2023-04-01T05:03:56;1.80;;;1.50;;
17524;SDS011;40431;52.198;9.902;2023-04-01T05:06:22;2.23;;;1.53;;
17524;SDS011;40431;52.198;9.902;2023-04-01T05:08:50;2.80;;;1.30;;
17524;SDS011;40431;52.198;9.902;2023-04-01T05:11:17;1.60;;;1.40;;
17524;SDS011;40431;52.198;9.902;2023-04-01T05:13:46;2.33;;;1.53;;
17524;SDS011;40431;52.198;9.902;2023-04-01T05:16:14;3.23;;;2.20;;
17524;SDS011;40431;52.198;9.902;2023-04-01T05:18:42;3.03;;;2.00;;
17524;SDS011;40431;52.198;9.902;2023-04-01T05:21:09;3.57;;;1.90;;
17524;SDS011;40431;52.198;9.902;2023-04-01T05:23:37;3.77;;;1.90;;
17524;SDS011;40431;52.198;9.902;2023-04-01T05:26:03;2.37;;;1.40;;
17524;SDS011;40431;52.198;9.902;2023-04-01T05:28:30;1.70;;;1.60;;
17524;SDS011;40431;52.198;9.902;2023-04-01T05:30:59;1.97;;;1.50;;
17524;SDS011;40431;52.198;9.902;2023-04-01T05:33:26;1.97;;;1.77;;
17524;SDS011;40431;52.198;9.902;2023-04-01T05:35:53;2.33;;;1.83;;
17524;SDS011;40431;52.198;9.902;2023-04-01T05:38:20;2.17;;;1.63;;
17524;SDS011;40431;52.198;9.902;2023-04-01T05:40:46;3.13;;;1.97;;
17524;SDS011;40431;52.198;9.902;2023-04-01T05:43:13;1.97;;;1.70;;
17524;SDS011;40431;52.198;9.902;2023-04-01T05:45:39;2.13;;;1.90;;
17524;SDS011;40431;52.198;9.902;2023-04-01T05:48:07;3.47;;;1.87;;
17524;SDS011;40431;52.198;9.902;2023-04-01T05:50:34;3.13;;;1.67;;
17524;SDS011;40431;52.198;9.902;2023-04-01T05:53:00;1.70;;;1.60;;
17524;SDS011;40431;52.198;9.902;2023-04-01T05:55:26;3.23;;;1.63;;
17524;SDS011;40431;52.198;9.902;2023-04-01T05:57:53;1.73;;;1.63;;
17524;SDS011;40431;52.198;9.902;2023-04-01T06:00:19;3.20;;;1.63;;
17524;SDS011;40431;52.198;9.902;2023-04-01T06:02:46;3.33;;;2.03;;
17524;SDS011;40431;52.198;9.902;2023-04-01T06:05:15;2.77;;;1.87;;
17524;SDS011;40431;52.198;9.902;2023-04-01T06:07:44;4.63;;;4.20;;
17524;SDS011;40431;52.198;9.902;2023-04-01T06:10:12;2.67;;;2.13;;
17524;SDS011;40431;52.198;9.902;2023-04-01T06:12:44;2.00;;;1.80;;
17524;SDS011;40431;52.198;9.902;2023-04-01T06:15:24;1.97;;;1.80;;
17524;SDS011;40431;52.198;9.902;2023-04-01T06:17:59;2.57;;;1.70;;
17524;SDS011;40431;52.198;9.902;2023-04-01T06:20:39;1.80;;;1.60;;
17524;SDS011;40431;52.198;9.902;2023-04-01T06:23:15;2.30;;;1.93;;
17524;SDS011;40431;52.198;9.902;2023-04-01T06:25:54;2.77;;;1.70;;
17524;SDS011;40431;52.198;9.902;2023-04-01T06:34:41;4.90;;;2.07;;
17524;SDS011;40431;52.198;9.902;2023-04-01T06:37:26;2.67;;;2.03;;
17524;SDS011;40431;52.198;9.902;2023-04-01T06:40:18;2.83;;;2.27;;
17524;SDS011;40431;52.198;9.902;2023-04-01T06:43:00;3.73;;;2.10;;
17524;SDS011;40431;52.198;9.902;2023-04-01T06:45:35;2.30;;;2.03;;
17524;SDS011;40431;52.198;9.902;2023-04-01T06:48:14;2.37;;;2.07;;
17524;SDS011;40431;52.198;9.902;2023-04-01T06:50:53;6.30;;;3.83;;
17524;SDS011;40431;52.198;9.902;2023-04-01T06:53:30;5.10;;;4.70;;
17524;SDS011;40431;52.198;9.902;2023-04-01T06:56:05;4.83;;;4.43;;
17524;SDS011;40431;52.198;9.902;2023-04-01T06:58:36;6.37;;;2.37;;
17524;SDS011;40431;52.198;9.902;2023-04-01T07:01:06;2.67;;;1.87;;
17524;SDS011;40431;52.198;9.902;2023-04-01T07:03:35;3.17;;;2.30;;
17524;SDS011;40431;52.198;9.902;2023-04-01T07:06:08;2.57;;;1.60;;
17524;SDS011;40431;52.198;9.902;2023-04-01T07:08:40;1.77;;;1.57;;
17524;SDS011;40431;52.198;9.902;2023-04-01T07:11:09;1.93;;;1.63;;
17524;SDS011;40431;52.198;9.902;2023-04-01T07:13:41;2.03;;;1.70;;
17524;SDS011;40431;52.198;9.902;2023-04-01T07:16:15;2.03;;;1.50;;
17524;SDS011;40431;52.198;9.902;2023-04-01T07:18:45;2.10;;;1.57;;
17524;SDS011;40431;52.198;9.902;2023-04-01T07:21:20;2.70;;;1.90;;
17524;SDS011;40431;52.198;9.902;2023-04-01T07:23:52;1.90;;;1.57;;
17524;SDS011;40431;52.198;9.902;2023-04-01T07:26:23;1.83;;;1.70;;
17524;SDS011;40431;52.198;9.902;2023-04-01T07:28:50;1.97;;;1.70;;
17524;SDS011;40431;52.198;9.902;2023-04-01T07:31:20;1.90;;;1.70;;
17524;SDS011;40431;52.198;9.902;2023-04-01T07:34:07;3.40;;;3.10;;
17524;SDS011;40431;52.198;9.902;2023-04-01T07:36:39;10.17;;;5.80;;
17524;SDS011;40431;52.198;9.902;2023-04-01T07:39:15;5.73;;;5.23;;
17524;SDS011;40431;52.198;9.902;2023-04-01T07:41:53;2.57;;;1.87;;
17524;SDS011;40431;52.198;9.902;2023-04-01T07:44:28;2.60;;;1.47;;
17524;SDS011;40431;52.198;9.902;2023-04-01T07:47:03;2.33;;;1.50;;
17524;SDS011;40431;52.198;9.902;2023-04-01T07:49:41;2.90;;;1.60;;
17524;SDS011;40431;52.198;9.902;2023-04-01T07:52:16;2.43;;;1.60;;
17524;SDS011;40431;52.198;9.902;2023-04-01T07:54:49;4.63;;;1.20;;
17524;SDS011;40431;52.198;9.902;2023-04-01T07:57:24;2.00;;;1.43;;
17524;SDS011;40431;52.198;9.902;2023-04-01T07:59:58;1.50;;;1.40;;
17524;SDS011;40431;52.198;9.902;2023-04-01T08:02:38;1.80;;;1.30;;
17524;SDS011;40431;52.198;9.902;2023-04-01T08:05:19;1.97;;;1.60;;
17524;SDS011;40431;52.198;9.902;2023-04-01T08:07:54;1.43;;;1.33;;
17524;SDS011;40431;52.198;9.902;2023-04-01T08:10:31;1.67;;;1.53;;
17524;SDS011;40431;52.198;9.902;2023-04-01T08:13:05;1.67;;;1.57;;
17524;SDS011;40431;52.198;9.902;2023-04-01T08:15:42;1.57;;;1.30;;
17524;SDS011;40431;52.198;9.902;2023-04-01T08:18:21;2.20;;;1.20;;
17524;SDS011;40431;52.198;9.902;2023-04-01T08:20:57;1.37;;;1.27;;
17524;SDS011;40431;52.198;9.902;2023-04-01T08:23:26;1.50;;;1.40;;
17524;SDS011;40431;52.198;9.902;2023-04-01T08:25:58;2.27;;;1.93;;
17524;SDS011;40431;52.198;9.902;2023-04-01T08:28:32;2.73;;;1.50;;
17524;SDS011;40431;52.198;9.902;2023-04-01T08:31:05;1.73;;;1.23;;
17524;SDS011;40431;52.198;9.902;2023-04-01T08:33:37;1.23;;;1.13;;
17524;SDS011;40431;52.198;9.902;2023-04-01T08:36:07;4.97;;;4.57;;
17524;SDS011;40431;52.198;9.902;2023-04-01T08:38:37;2.80;;;1.73;;
17524;SDS011;40431;52.198;9.902;2023-04-01T08:44:24;4.60;;;4.20;;
17524;SDS011;40431;52.198;9.902;2023-04-01T08:50:26;7.93;;;7.23;;
17524;SDS011;40431;52.198;9.902;2023-04-01T08:53:08;2.90;;;2.70;;
17524;SDS011;40431;52.198;9.902;2023-04-01T08:55:59;3.63;;;3.23;;
17524;SDS011;40431;52.198;9.902;2023-04-01T09:01:43;1.80;;;1.27;;
17524;SDS011;40431;52.198;9.902;2023-04-01T09:04:24;1.13;;;1.10;;
17524;SDS011;40431;52.198;9.902;2023-04-01T09:07:11;1.13;;;0.90;;
17524;SDS011;40431;52.198;9.902;2023-04-01T09:12:54;1.57;;;1.23;;
17524;SDS011;40431;52.198;9.902;2023-04-01T09:18:36;1.67;;;1.20;;
17524;SDS011;40431;52.198;9.902;2023-04-01T09:21:19;1.30;;;1.20;;
17524;SDS011;40431;52.198;9.902;2023-04-01T09:24:05;1.97;;;1.27;;
17524;SDS011;40431;52.198;9.902;2023-04-01T09:26:53;1.10;;;1.00;;
17524;SDS011;40431;52.198;9.902;2023-04-01T09:29:37;1.27;;;1.17;;
17524;SDS011;40431;52.198;9.902;2023-04-01T09:32:17;1.10;;;1.10;;
17524;SDS011;40431;52.198;9.902;2023-04-01T09:35:07;1.27;;;1.03;;
17524;SDS011;40431;52.198;9.902;2023-04-01T09:37:51;1.20;;;1.17;;
17524;SDS011;40431;52.198;9.902;2023-04-01T09:40:21;1.20;;;1.10;;
17524;SDS011;40431;52.198;9.902;2023-04-01T09:43:05;1.03;;;1.00;;
17524;SDS011;40431;52.198;9.902;2023-04-01T09:45:44;1.43;;;1.33;;
17524;SDS011;40431;52.198;9.902;2023-04-01T09:48:28;1.53;;;1.43;;
17524;SDS011;40431;52.198;9.902;2023-04-01T09:51:24;1.43;;;1.33;;
17524;SDS011;40431;52.198;9.902;2023-04-01T09:54:00;1.00;;;0.90;;
17524;SDS011;40431;52.198;9.902;2023-04-01T10:00:03;1.10;;;1.10;;
17524;SDS011;40431;52.198;9.902;2023-04-01T10:03:01;1.00;;;0.90;;
17524;SDS011;40431;52.198;9.902;2023-04-01T10:09:21;1.00;;;1.00;;
17524;SDS011;40431;52.198;9.902;2023-04-01T10:21:36;1.20;;;1.20;;
17524;SDS011;40431;52.198;9.902;2023-04-01T10:24:37;1.83;;;1.73;;
17524;SDS011;40431;52.198;9.902;2023-04-01T10:27:21;2.53;;;1.60;;
17524;SDS011;40431;52.198;9.902;2023-04-01T10:30:23;2.20;;;2.00;;
17524;SDS011;40431;52.198;9.902;2023-04-01T10:33:35;3.27;;;2.97;;
17524;SDS011;40431;52.198;9.902;2023-04-01T10:36:19;1.90;;;1.80;;
17524;SDS011;40431;52.198;9.902;2023-04-01T10:39:13;1.30;;;1.20;;
17524;SDS011;40431;52.198;9.902;2023-04-01T10:42:01;1.40;;;1.30;;
17524;SDS011;40431;52.198;9.902;2023-04-01T10:45:00;1.10;;;1.10;;
17524;SDS011;40431;52.198;9.902;2023-04-01T10:47:55;1.73;;;1.20;;
17524;SDS011;40431;52.198;9.902;2023-04-01T10:53:43;4.77;;;1.73;;
17524;SDS011;40431;52.198;9.902;2023-04-01T10:59:22;1.77;;;1.67;;
17524;SDS011;40431;52.198;9.902;2023-04-01T11:02:08;1.10;;;1.00;;
17524;SDS011;40431;52.198;9.902;2023-04-01T11:05:06;2.77;;;2.57;;
17524;SDS011;40431;52.198;9.902;2023-04-01T11:14:28;1.37;;;1.27;;
17524;SDS011;40431;52.198;9.902;2023-04-01T11:17:10;1.10;;;1.10;;
17524;SDS011;40431;52.198;9.902;2023-04-01T11:22:58;2.30;;;1.10;;
17524;SDS011;40431;52.198;9.902;2023-04-01T11:25:52;1.23;;;1.10;;
17524;SDS011;40431;52.198;9.902;2023-04-01T11:31:42;2.53;;;2.40;;
17524;SDS011;40431;52.198;9.902;2023-04-01T11:34:20;1.40;;;1.30;;
17524;SDS011;40431;52.198;9.902;2023-04-01T11:37:00;1.60;;;1.40;;
17524;SDS011;40431;52.198;9.902;2023-04-01T11:39:39;1.50;;;1.40;;
17524;SDS011;40431;52.198;9.902;2023-04-01T11:42:16;1.20;;;1.10;;
17524;SDS011;40431;52.198;9.902;2023-04-01T11:44:51;1.27;;;1.20;;
17524;SDS011;40431;52.198;9.902;2023-04-01T11:47:44;1.23;;;1.13;;
17524;SDS011;40431;52.198;9.902;2023-04-01T11:50:21;1.13;;;1.00;;
17524;SDS011;40431;52.198;9.902;2023-04-01T11:53:02;1.57;;;1.00;;
17524;SDS011;40431;52.198;9.902;2023-04-01T11:55:41;2.27;;;1.70;;
17524;SDS011;40431;52.198;9.902;2023-04-01T12:01:19;1.30;;;1.20;;
17524;SDS011;40431;52.198;9.902;2023-04-01T12:04:04;1.20;;;1.10;;
17524;SDS011;40431;52.198;9.902;2023-04-01T12:06:44;2.47;;;2.00;;
17524;SDS011;40431;52.198;9.902;2023-04-01T12:09:18;1.80;;;1.70;;
17524;SDS011;40431;52.198;9.902;2023-04-01T12:11:52;1.43;;;1.33;;
17524;SDS011;40431;52.198;9.902;2023-04-01T12:14:36;1.50;;;1.40;;
17524;SDS011;40431;52.198;9.902;2023-04-01T12:17:09;1.20;;;1.17;;
17524;SDS011;40431;52.198;9.902;2023-04-01T12:19:51;1.70;;;1.60;;
17524;SDS011;40431;52.198;9.902;2023-04-01T12:22:24;1.40;;;1.30;;
17524;SDS011;40431;52.198;9.902;2023-04-01T12:25:03;1.30;;;1.10;;
17524;SDS011;40431;52.198;9.902;2023-04-01T12:27:45;1.30;;;1.30;;
17524;SDS011;40431;52.198;9.902;2023-04-01T12:36:15;1.37;;;1.27;;
17524;SDS011;40431;52.198;9.902;2023-04-01T12:38:51;1.13;;;1.13;;
17524;SDS011;40431;52.198;9.902;2023-04-01T12:41:32;1.40;;;1.30;;
17524;SDS011;40431;52.198;9.902;2023-04-01T12:44:18;1.03;;;1.03;;
17524;SDS011;40431;52.198;9.902;2023-04-01T12:47:00;1.20;;;1.13;;
17524;SDS011;40431;52.198;9.902;2023-04-01T12:49:45;0.83;;;0.83;;
17524;SDS011;40431;52.198;9.902;2023-04-01T12:52:47;1.20;;;1.10;;
17524;SDS011;40431;52.198;9.902;2023-04-01T12:55:35;1.00;;;1.00;;
17524;SDS011;40431;52.198;9.902;2023-04-01T12:58:15;0.90;;;0.90;;
17524;SDS011;40431;52.198;9.902;2023-04-01T13:01:03;2.47;;;1.10;;
17524;SDS011;40431;52.198;9.902;2023-04-01T13:03:52;1.37;;;1.27;;
17524;SDS011;40431;52.198;9.902;2023-04-01T13:06:53;1.07;;;1.00;;
17524;SDS011;40431;52.198;9.902;2023-04-01T13:09:36;1.07;;;0.97;;
17524;SDS011;40431;52.198;9.902;2023-04-01T13:12:23;2.10;;;1.10;;
17524;SDS011;40431;52.198;9.902;2023-04-01T13:15:14;1.30;;;1.20;;
17524;SDS011;40431;52.198;9.902;2023-04-01T13:17:51;0.90;;;0.90;;
17524;SDS011;40431;52.198;9.902;2023-04-01T13:20:28;1.40;;;1.30;;
17524;SDS011;40431;52.198;9.902;2023-04-01T13:23:11;0.87;;;0.87;;
17524;SDS011;40431;52.198;9.902;2023-04-01T13:25:53;1.00;;;1.00;;
17524;SDS011;40431;52.198;9.902;2023-04-01T13:28:30;1.50;;;1.40;;
17524;SDS011;40431;52.198;9.902;2023-04-01T13:31:05;1.47;;;1.10;;
17524;SDS011;40431;52.198;9.902;2023-04-01T13:33:37;2.67;;;1.20;;
17524;SDS011;40431;52.198;9.902;2023-04-01T13:36:14;1.20;;;1.20;;
17524;SDS011;40431;52.198;9.902;2023-04-01T13:38:54;1.63;;;1.30;;
17524;SDS011;40431;52.198;9.902;2023-04-01T13:44:33;2.13;;;1.87;;
17524;SDS011;40431;52.198;9.902;2023-04-01T13:47:09;1.70;;;1.60;;
17524;SDS011;40431;52.198;9.902;2023-04-01T13:49:57;1.90;;;1.60;;
17524;SDS011;40431;52.198;9.902;2023-04-01T13:52:52;1.73;;;1.63;;
17524;SDS011;40431;52.198;9.902;2023-04-01T13:55:44;1.43;;;1.33;;
17524;SDS011;40431;52.198;9.902;2023-04-01T13:58:38;1.23;;;1.03;;
17524;SDS011;40431;52.198;9.902;2023-04-01T14:01:17;1.53;;;1.07;;
17524;SDS011;40431;52.198;9.902;2023-04-01T14:09:59;1.30;;;1.20;;
17524;SDS011;40431;52.198;9.902;2023-04-01T14:12:35;1.37;;;1.27;;
17524;SDS011;40431;52.198;9.902;2023-04-01T14:15:17;1.93;;;1.23;;
17524;SDS011;40431;52.198;9.902;2023-04-01T14:17:59;1.23;;;1.10;;
17524;SDS011;40431;52.198;9.902;2023-04-01T14:20:38;1.30;;;1.30;;
17524;SDS011;40431;52.198;9.902;2023-04-01T14:23:13;1.80;;;1.70;;
17524;SDS011;40431;52.198;9.902;2023-04-01T14:28:53;3.40;;;1.90;;
17524;SDS011;40431;52.198;9.902;2023-04-01T14:31:36;2.60;;;2.40;;
17524;SDS011;40431;52.198;9.902;2023-04-01T14:34:14;3.30;;;3.03;;
17524;SDS011;40431;52.198;9.902;2023-04-01T14:36:59;3.13;;;2.50;;
17524;SDS011;40431;52.198;9.902;2023-04-01T14:40:00;2.20;;;2.00;;
17524;SDS011;40431;52.198;9.902;2023-04-01T14:42:45;2.40;;;2.20;;
17524;SDS011;40431;52.198;9.902;2023-04-01T14:45:27;2.40;;;2.20;;
17524;SDS011;40431;52.198;9.902;2023-04-01T14:48:23;2.27;;;2.13;;
17524;SDS011;40431;52.198;9.902;2023-04-01T14:50:55;3.10;;;2.90;;
17524;SDS011;40431;52.198;9.902;2023-04-01T14:53:29;2.60;;;2.40;;
17524;SDS011;40431;52.198;9.902;2023-04-01T14:56:00;2.53;;;2.43;;
17524;SDS011;40431;52.198;9.902;2023-04-01T14:58:39;3.20;;;3.00;;
17524;SDS011;40431;52.198;9.902;2023-04-01T15:01:15;3.13;;;2.93;;
17524;SDS011;40431;52.198;9.902;2023-04-01T15:04:10;4.23;;;4.03;;
17524;SDS011;40431;52.198;9.902;2023-04-01T15:06:58;3.70;;;3.50;;
17524;SDS011;40431;52.198;9.902;2023-04-01T15:09:36;4.20;;;4.00;;
17524;SDS011;40431;52.198;9.902;2023-04-01T15:12:12;4.43;;;4.23;;
17524;SDS011;40431;52.198;9.902;2023-04-01T15:14:51;4.07;;;3.87;;
17524;SDS011;40431;52.198;9.902;2023-04-01T15:17:30;4.77;;;4.47;;
17524;SDS011;40431;52.198;9.902;2023-04-01T15:20:13;3.87;;;3.67;;
17524;SDS011;40431;52.198;9.902;2023-04-01T15:22:54;4.40;;;4.10;;
17524;SDS011;40431;52.198;9.902;2023-04-01T15:25:33;4.10;;;3.90;;
17524;SDS011;40431;52.198;9.902;2023-04-01T15:28:11;3.37;;;3.17;;
17524;SDS011;40431;52.198;9.902;2023-04-01T15:30:48;3.50;;;3.30;;
17524;SDS011;40431;52.198;9.902;2023-04-01T15:33:29;2.90;;;2.80;;
17524;SDS011;40431;52.198;9.902;2023-04-01T15:36:13;2.53;;;2.43;;
17524;SDS011;40431;52.198;9.902;2023-04-01T15:38:48;2.37;;;2.27;;
17524;SDS011;40431;52.198;9.902;2023-04-01T15:41:19;3.50;;;2.23;;
17524;SDS011;40431;52.198;9.902;2023-04-01T15:43:53;2.60;;;2.50;;
17524;SDS011;40431;52.198;9.902;2023-04-01T15:46:39;2.57;;;2.37;;
17524;SDS011;40431;52.198;9.902;2023-04-01T15:49:23;3.33;;;3.13;;
17524;SDS011;40431;52.198;9.902;2023-04-01T15:52:05;3.43;;;3.23;;
17524;SDS011;40431;52.198;9.902;2023-04-01T15:54:48;3.47;;;3.27;;
17524;SDS011;40431;52.198;9.902;2023-04-01T15:57:28;3.50;;;3.30;;
17524;SDS011;40431;52.198;9.902;2023-04-01T16:00:11;3.53;;;3.33;;
17524;SDS011;40431;52.198;9.902;2023-04-01T16:02:48;5.00;;;4.67;;
17524;SDS011;40431;52.198;9.902;2023-04-01T16:05:23;4.43;;;4.23;;
17524;SDS011;40431;52.198;9.902;2023-04-01T16:08:01;3.73;;;3.53;;
17524;SDS011;40431;52.198;9.902;2023-04-01T16:10:44;4.10;;;3.90;;
17524;SDS011;40431;52.198;9.902;2023-04-01T16:13:28;4.40;;;4.20;;
17524;SDS011;40431;52.198;9.902;2023-04-01T16:16:07;3.90;;;3.70;;
17524;SDS011;40431;52.198;9.902;2023-04-01T16:18:48;4.00;;;3.80;;
17524;SDS011;40431;52.198;9.902;2023-04-01T16:21:33;4.43;;;4.23;;
17524;SDS011;40431;52.198;9.902;2023-04-01T16:24:04;4.33;;;4.13;;
17524;SDS011;40431;52.198;9.902;2023-04-01T16:26:43;4.00;;;3.80;;
17524;SDS011;40431;52.198;9.902;2023-04-01T16:29:17;4.30;;;4.00;;
17524;SDS011;40431;52.198;9.902;2023-04-01T16:31:51;3.87;;;3.67;;
17524;SDS011;40431;52.198;9.902;2023-04-01T16:34:21;3.97;;;3.77;;
17524;SDS011;40431;52.198;9.902;2023-04-01T16:36:54;3.77;;;3.57;;
17524;SDS011;40431;52.198;9.902;2023-04-01T16:39:28;3.43;;;3.23;;
17524;SDS011;40431;52.198;9.902;2023-04-01T16:42:22;4.07;;;3.77;;
17524;SDS011;40431;52.198;9.902;2023-04-01T16:44:55;3.87;;;3.57;;
17524;SDS011;40431;52.198;9.902;2023-04-01T16:47:27;4.03;;;3.83;;
17524;SDS011;40431;52.198;9.902;2023-04-01T16:49:56;4.03;;;3.73;;
17524;SDS011;40431;52.198;9.902;2023-04-01T16:52:36;2.97;;;2.83;;
17524;SDS011;40431;52.198;9.902;2023-04-01T16:55:17;2.73;;;2.60;;
17524;SDS011;40431;52.198;9.902;2023-04-01T16:57:46;2.43;;;2.23;;
17524;SDS011;40431;52.198;9.902;2023-04-01T17:00:17;3.30;;;3.10;;